»·PEaware :: AAL3454 KGEG-KPDX

AAL3454 :: KGEG-KPDX

FLIGHT INFORMATION

Flight Status: Arrived
Operator:
American Airlines
More flights by this operator :: More flights under this callsign
Pilot: Anonymous 18910 (18910)
Aircraft: AIRBUS A330
(A330)
More flights by this aircraft type
Origin: KGEG Spokane Intl
United States
Destination: KPDX Portland Intl
United States
More flights between these airports :: More routes between these airports
Route: +GEG3 YKM HHOOD4
File this flight plan on PilotEdge
Remarks:
Altitude:
(Current/Filed)
21,000ft
Speed:
(Current/Filed)
350kts
Departed: 01-Jun-18 09:11 PM
Arrived: 01-Jun-18 09:53 PM
Distance/Time
Traveled:
242nm/0:42
Distance/Time
To Go:
Arrived

Flight Plot

Page will automatically refresh every two minutes.

Flight plan parsing failed; only flown route is shown


Map Options




Map Legend


Flown Route
Filed Route
Departure Airport
Arrival Airport
Navaid (VOR, NDB)
Fix

Horizontal Profiles

Position Reports

Time Latitude Longitude Heading Altitude Ground
Speed
01-Jun-18 21:03 47.625181 -117.533534 297 2361ft 0kts
01-Jun-18 21:04 47.625181 -117.533534 297 2361ft 0kts
01-Jun-18 21:05 47.625181 -117.533534 297 2361ft 0kts
01-Jun-18 21:06 47.625181 -117.533534 297 2361ft 0kts
01-Jun-18 21:07 47.625240 -117.533566 359 2361ft 1kts
01-Jun-18 21:08 47.627449 -117.527965 45 2354ft 27kts
01-Jun-18 21:09 47.631824 -117.521588 47 2334ft 16kts
01-Jun-18 21:10 47.631334 -117.518860 171 2329ft 9kts
01-Jun-18 21:11 47.613394 -117.545122 226 2551ft 181kts
01-Jun-18 21:12 47.568783 -117.611833 224 3934ft 277kts
01-Jun-18 21:13 47.513894 -117.691254 224 7337ft 285kts
01-Jun-18 21:14 47.472887 -117.793308 243 10139ft 311kts
01-Jun-18 21:15 47.436123 -117.919419 246 11750ft 353kts
01-Jun-18 21:16 47.392032 -118.043590 243 11969ft 335kts
01-Jun-18 21:17 47.347975 -118.164484 243 11972ft 334kts
01-Jun-18 21:18 47.312144 -118.265436 244 11973ft 334kts
01-Jun-18 21:19 47.270863 -118.383903 244 12082ft 331kts
01-Jun-18 21:20 47.227842 -118.505965 244 13498ft 338kts
01-Jun-18 21:21 47.183695 -118.628187 245 15288ft 343kts
01-Jun-18 21:22 47.138882 -118.748660 244 17266ft 347kts
01-Jun-18 21:23 47.062991 -118.946539 244 20500ft 353kts
01-Jun-18 21:24 46.943301 -119.262862 244 21202ft 355kts
01-Jun-18 21:25 46.832506 -119.573579 246 21197ft 356kts
01-Jun-18 21:26 46.734146 -119.854979 246 21201ft 356kts
01-Jun-18 21:27 46.632250 -120.176753 248 21211ft 390kts
01-Jun-18 21:28 46.570902 -120.382029 251 21210ft 389kts
01-Jun-18 21:29 46.529369 -120.526195 230 21216ft 397kts
01-Jun-18 21:30 46.438943 -120.611710 224 21211ft 402kts
01-Jun-18 21:31 46.354500 -120.713472 224 21210ft 401kts
01-Jun-18 21:32 46.271163 -120.816293 225 21211ft 401kts
01-Jun-18 21:33 46.186554 -120.920572 224 21216ft 401kts
01-Jun-18 21:34 46.102239 -121.024073 224 21227ft 401kts
01-Jun-18 21:35 46.017288 -121.127910 224 21230ft 401kts
01-Jun-18 21:36 45.933485 -121.229941 224 21229ft 401kts
01-Jun-18 21:37 45.853207 -121.326987 224 20990ft 404kts
01-Jun-18 21:38 45.770402 -121.426850 224 17731ft 376kts
01-Jun-18 21:39 45.692788 -121.520217 223 14957ft 358kts
01-Jun-18 21:40 45.613770 -121.615164 223 12084ft 359kts
01-Jun-18 21:41 45.547816 -121.694291 218 10594ft 277kts
01-Jun-18 21:42 45.531758 -121.790262 274 8399ft 268kts
01-Jun-18 21:43 45.535951 -121.896230 274 7460ft 268kts
01-Jun-18 21:44 45.541130 -122.002684 274 6243ft 272kts
01-Jun-18 21:45 45.520335 -122.089764 232 5983ft 229kts
01-Jun-18 21:46 45.482304 -122.161873 236 5292ft 221kts
01-Jun-18 21:47 45.482887 -122.239021 295 4840ft 214kts
01-Jun-18 21:48 45.504136 -122.318250 287 4054ft 212kts
01-Jun-18 21:49 45.520017 -122.398051 291 2675ft 214kts
01-Jun-18 21:50 45.545598 -122.471180 301 1454ft 180kts
01-Jun-18 21:51 45.566158 -122.522455 299 687ft 136kts
01-Jun-18 21:52 45.584691 -122.569718 299 50ft 136kts
01-Jun-18 21:53 45.592069 -122.590289 272 31ft 6kts
01-Jun-18 21:54 45.592076 -122.590922 270 31ft 1kts
01-Jun-18 21:55 45.592515 -122.593075 298 32ft 13kts
01-Jun-18 21:56 45.592322 -122.598275 210 33ft 17kts
01-Jun-18 21:57 45.590984 -122.597202 60 32ft 0kts
01-Jun-18 21:58 45.591100 -122.596918 59 32ft 0kts
01-Jun-18 21:59 45.591121 -122.596867 59 32ft 0kts

Navigation Log

Ident Type
Flight plan parsing failed, navigation log unavailable